createdAt,value
2019-02-17T00:00:27.117Z,3.55
2019-02-17T00:01:27.144Z,3.55
2019-02-17T00:02:27.117Z,3.58
2019-02-17T00:03:27.164Z,3.62
2019-02-17T00:04:27.095Z,3.55
2019-02-17T00:05:27.194Z,3.68
2019-02-17T00:06:27.089Z,3.74
2019-02-17T00:07:27.057Z,3.74
2019-02-17T00:08:27.042Z,3.80
2019-02-17T00:09:27.116Z,3.84
2019-02-17T00:10:27.074Z,3.83
2019-02-17T00:11:27.205Z,3.83
2019-02-17T00:12:27.011Z,3.81
2019-02-17T00:13:26.991Z,3.73
2019-02-17T00:14:27.038Z,3.70
2019-02-17T00:15:27.053Z,3.74
2019-02-17T00:16:26.936Z,3.73
2019-02-17T00:17:27.053Z,3.74
2019-02-17T00:18:26.944Z,3.62
2019-02-17T00:19:26.965Z,3.66
2019-02-17T00:20:26.937Z,3.66
2019-02-17T00:21:26.977Z,3.73
2019-02-17T00:22:26.895Z,3.73
2019-02-17T00:23:26.990Z,3.78
2019-02-17T00:24:26.937Z,3.69
2019-02-17T00:25:26.878Z,3.76
2019-02-17T00:26:26.976Z,3.69
2019-02-17T00:27:26.840Z,3.73
2019-02-17T00:28:26.919Z,3.56
2019-02-17T00:29:26.873Z,3.51
2019-02-17T00:30:26.833Z,3.31
2019-02-17T00:31:26.800Z,3.32
2019-02-17T00:32:26.865Z,3.32
2019-02-17T00:33:26.798Z,3.37
2019-02-17T00:34:26.941Z,3.37
2019-02-17T00:35:26.777Z,3.37
2019-02-17T00:36:26.778Z,3.37
2019-02-17T00:37:26.738Z,3.58
2019-02-17T00:38:26.829Z,3.74
2019-02-17T00:39:26.743Z,3.81
2019-02-17T00:40:26.885Z,3.99
2019-02-17T00:41:26.747Z,4.02
2019-02-17T00:42:26.692Z,4.19
2019-02-17T00:43:26.695Z,4.13
2019-02-17T00:44:26.737Z,4.12
2019-02-17T00:45:26.673Z,4.13
2019-02-17T00:46:27.748Z,4.23
2019-02-17T00:47:26.654Z,4.22
2019-02-17T00:48:26.642Z,4.31
2019-02-17T00:49:26.811Z,4.35
2019-02-17T00:50:26.643Z,4.24
2019-02-17T00:51:26.673Z,4.30
2019-02-17T00:52:26.601Z,4.37
2019-02-17T00:53:26.681Z,4.42
2019-02-17T00:54:26.581Z,4.37
2019-02-17T00:55:26.595Z,4.34
2019-02-17T00:56:26.594Z,4.34
2019-02-17T00:57:26.639Z,4.34
2019-02-17T00:58:26.538Z,4.35
2019-02-17T00:59:26.628Z,4.35
2019-02-17T01:00:26.517Z,4.38
2019-02-17T01:01:27.620Z,4.38
2019-02-17T01:02:26.484Z,4.49
2019-02-17T01:03:26.543Z,4.52
2019-02-17T01:04:26.481Z,4.53
2019-02-17T01:05:26.574Z,4.49
2019-02-17T01:06:26.499Z,4.53
2019-02-17T01:07:26.566Z,4.49
2019-02-17T01:08:26.471Z,4.52
2019-02-17T01:09:26.488Z,4.44
2019-02-17T01:10:26.410Z,4.45
2019-02-17T01:11:26.456Z,4.50
2019-02-17T01:12:26.395Z,4.45
2019-02-17T01:13:26.511Z,4.48
2019-02-17T01:14:26.367Z,4.45
2019-02-17T01:15:26.419Z,4.49
2019-02-17T01:16:26.414Z,4.55
2019-02-17T01:17:26.328Z,4.52
2019-02-17T01:18:26.320Z,4.48
2019-02-17T01:19:26.441Z,4.48
2019-02-17T01:20:26.307Z,4.45
2019-02-17T01:21:26.437Z,4.52
2019-02-17T01:22:26.436Z,4.50
2019-02-17T01:23:26.273Z,4.53
2019-02-17T01:24:26.382Z,4.56
2019-02-17T01:25:26.261Z,4.60
2019-02-17T01:26:26.398Z,4.60
2019-02-17T01:27:26.228Z,4.60
2019-02-17T01:28:26.318Z,4.55
2019-02-17T01:29:26.231Z,4.55
2019-02-17T01:30:26.333Z,4.49
2019-02-17T01:31:26.244Z,4.40
2019-02-17T01:32:26.244Z,4.41
2019-02-17T01:33:26.189Z,4.38
2019-02-17T01:34:26.261Z,4.34
2019-02-17T01:35:26.162Z,4.34
2019-02-17T01:36:26.230Z,4.28
2019-02-17T01:37:26.146Z,4.22
2019-02-17T01:38:26.204Z,4.24
2019-02-17T01:39:26.103Z,4.16
2019-02-17T01:40:26.196Z,4.19
2019-02-17T01:41:26.138Z,4.23
2019-02-17T01:42:26.205Z,4.28
2019-02-17T01:43:26.091Z,4.31
2019-02-17T01:44:26.097Z,4.23
2019-02-17T01:45:26.037Z,4.22
2019-02-17T01:46:26.084Z,4.22
2019-02-17T01:47:26.021Z,4.13
2019-02-17T01:48:26.132Z,4.16
2019-02-17T01:49:26.014Z,4.12
2019-02-17T01:50:26.052Z,4.06
2019-02-17T01:51:26.024Z,4.05
2019-02-17T01:52:25.996Z,4.10
2019-02-17T01:53:25.954Z,4.10
2019-02-17T01:54:26.074Z,4.05
2019-02-17T01:55:25.956Z,4.12
2019-02-17T01:56:26.048Z,4.17
2019-02-17T01:57:25.930Z,4.20
2019-02-17T01:58:25.896Z,4.24
2019-02-17T01:59:30.690Z,4.20
2019-02-17T02:00:26.925Z,4.23
2019-02-17T02:01:25.935Z,4.23
2019-02-17T02:02:25.913Z,4.13
2019-02-17T02:03:25.902Z,4.24
2019-02-17T02:04:25.871Z,4.23
2019-02-17T02:05:25.935Z,4.26
2019-02-17T02:06:25.854Z,4.24
2019-02-17T02:07:25.860Z,4.32
2019-02-17T02:08:25.811Z,4.28
2019-02-17T02:09:25.877Z,4.28
2019-02-17T02:10:25.805Z,4.34
2019-02-17T02:11:25.929Z,4.41
2019-02-17T02:12:25.803Z,4.37
2019-02-17T02:13:25.798Z,4.45
2019-02-17T02:14:25.760Z,4.49
2019-02-17T02:15:25.733Z,4.50
2019-02-17T02:16:25.781Z,4.62
2019-02-17T02:17:25.808Z,4.63
2019-02-17T02:18:25.696Z,4.67
2019-02-17T02:19:25.741Z,4.70
2019-02-17T02:20:25.696Z,4.70
2019-02-17T02:21:25.713Z,4.75
2019-02-17T02:22:25.671Z,4.71
2019-02-17T02:23:25.761Z,4.73
2019-02-17T02:24:25.667Z,4.63
2019-02-17T02:25:26.693Z,4.63
2019-02-17T02:26:25.662Z,4.71
2019-02-17T02:27:25.623Z,4.67
2019-02-17T02:28:25.743Z,4.66
2019-02-17T02:29:25.597Z,4.66
2019-02-17T02:30:25.706Z,4.67
2019-02-17T02:31:25.603Z,4.63
2019-02-17T02:32:25.618Z,4.74
2019-02-17T02:33:25.540Z,4.73
2019-02-17T02:34:25.628Z,4.63
2019-02-17T02:35:25.539Z,4.67
2019-02-17T02:36:25.623Z,4.70
2019-02-17T02:37:25.515Z,4.73
2019-02-17T02:38:25.546Z,4.66
2019-02-17T02:39:25.485Z,4.63
2019-02-17T02:40:25.551Z,4.63
2019-02-17T02:41:34.290Z,4.67
2019-02-17T02:42:26.452Z,4.62
2019-02-17T02:43:25.471Z,4.70
2019-02-17T02:44:25.444Z,4.70
2019-02-17T02:45:25.490Z,4.67
2019-02-17T02:46:25.457Z,4.67
2019-02-17T02:47:25.462Z,4.63
2019-02-17T02:48:25.404Z,4.63
2019-02-17T02:49:25.426Z,4.63
2019-02-17T02:50:25.374Z,4.67
2019-02-17T02:51:25.545Z,4.67
2019-02-17T02:52:25.373Z,4.60
2019-02-17T02:53:25.560Z,4.60
2019-02-17T02:54:25.342Z,4.66
2019-02-17T02:55:25.465Z,4.67
2019-02-17T02:56:25.375Z,4.68
2019-02-17T02:57:25.520Z,4.62
2019-02-17T02:58:25.296Z,4.67
2019-02-17T02:59:26.529Z,4.60
2019-02-17T03:00:25.264Z,4.59
2019-02-17T03:01:25.390Z,4.56
2019-02-17T03:02:25.473Z,4.52
2019-02-17T03:03:25.276Z,4.59
2019-02-17T03:04:26.437Z,4.52
2019-02-17T03:05:25.226Z,4.53
2019-02-17T03:06:25.414Z,4.58
2019-02-17T03:07:25.225Z,4.53
2019-02-17T03:08:25.182Z,4.55
2019-02-17T03:09:25.188Z,4.49
2019-02-17T03:10:26.378Z,4.58
2019-02-17T03:11:25.907Z,4.49
2019-02-17T03:12:25.347Z,4.56
2019-02-17T03:13:25.145Z,4.52
2019-02-17T03:14:25.121Z,4.59
2019-02-17T03:15:25.100Z,4.60
2019-02-17T03:16:25.299Z,4.74
2019-02-17T03:17:25.133Z,4.74
2019-02-17T03:18:25.296Z,4.78
2019-02-17T03:19:25.067Z,4.84
2019-02-17T03:20:25.073Z,4.93
2019-02-17T03:21:25.061Z,4.89
2019-02-17T03:22:25.303Z,5.02
2019-02-17T03:23:25.043Z,4.94
2019-02-17T03:24:25.243Z,4.96
2019-02-17T03:25:25.022Z,4.99
2019-02-17T03:26:24.990Z,5.02
2019-02-17T03:27:25.210Z,4.94
2019-02-17T03:28:24.994Z,4.97
2019-02-17T03:29:26.097Z,5.04
2019-02-17T03:30:24.950Z,4.93
2019-02-17T03:31:27.138Z,4.93
2019-02-17T03:32:25.167Z,5.00
2019-02-17T03:33:24.996Z,4.96
2019-02-17T03:34:27.082Z,5.08
2019-02-17T03:35:24.911Z,4.89
2019-02-17T03:36:25.112Z,4.86
2019-02-17T03:37:25.068Z,4.86
2019-02-17T03:38:24.887Z,4.70
2019-02-17T03:39:24.875Z,4.77
2019-02-17T03:40:25.036Z,4.63
2019-02-17T03:41:24.884Z,4.68
2019-02-17T03:42:25.064Z,4.68
2019-02-17T03:43:24.883Z,4.67
2019-02-17T03:44:24.803Z,4.58
2019-02-17T03:45:24.839Z,4.45
2019-02-17T03:46:24.983Z,4.49
2019-02-17T03:47:24.775Z,4.35
2019-02-17T03:48:25.984Z,4.37
2019-02-17T03:49:24.872Z,4.31
2019-02-17T03:50:24.740Z,4.37
2019-02-17T03:51:24.755Z,4.34
2019-02-17T03:52:25.931Z,4.31
2019-02-17T03:53:24.751Z,4.30
2019-02-17T03:54:24.834Z,4.44
2019-02-17T03:55:24.716Z,4.26
2019-02-17T03:56:24.706Z,4.35
2019-02-17T03:57:24.844Z,4.40
2019-02-17T03:58:24.718Z,4.41
2019-02-17T03:59:24.864Z,4.45
2019-02-17T04:00:24.655Z,4.38
2019-02-17T04:01:25.815Z,4.38
2019-02-17T04:02:24.635Z,4.45
2019-02-17T04:03:24.832Z,4.49
2019-02-17T04:04:24.617Z,4.55
2019-02-17T04:05:24.798Z,4.59
2019-02-17T04:06:24.598Z,4.67
2019-02-17T04:07:24.720Z,4.63
2019-02-17T04:08:24.617Z,4.63
2019-02-17T04:09:26.805Z,4.70
2019-02-17T04:10:24.547Z,4.63
2019-02-17T04:11:24.856Z,4.67
2019-02-17T04:12:24.511Z,4.62
2019-02-17T04:13:24.710Z,4.55
2019-02-17T04:14:24.666Z,4.58
2019-02-17T04:15:24.499Z,4.66
2019-02-17T04:16:24.695Z,4.55
2019-02-17T04:17:24.463Z,4.55
2019-02-17T04:18:24.649Z,4.58
2019-02-17T04:19:24.461Z,4.58
2019-02-17T04:20:24.464Z,4.67
2019-02-17T04:21:24.633Z,4.75
2019-02-17T04:22:24.422Z,4.82
2019-02-17T04:23:31.308Z,4.78
2019-02-17T04:24:25.417Z,4.86
2019-02-17T04:25:24.534Z,4.86
2019-02-17T04:26:26.598Z,4.89
2019-02-17T04:27:24.420Z,4.90
2019-02-17T04:28:24.589Z,4.92
2019-02-17T04:29:24.355Z,4.96
2019-02-17T04:30:29.288Z,4.99
2019-02-17T04:31:25.335Z,5.02
2019-02-17T04:32:24.376Z,5.11
2019-02-17T04:33:24.299Z,5.12
2019-02-17T04:34:24.571Z,5.10
2019-02-17T04:35:24.305Z,5.11
2019-02-17T04:36:24.389Z,5.12
2019-02-17T04:37:24.281Z,5.14
2019-02-17T04:38:24.283Z,5.11
2019-02-17T04:39:24.486Z,5.07
2019-02-17T04:40:24.254Z,5.15
2019-02-17T04:41:24.425Z,5.10
2019-02-17T04:42:24.219Z,5.10
2019-02-17T04:43:24.347Z,5.07
2019-02-17T04:44:24.272Z,5.11
2019-02-17T04:45:24.347Z,5.12
2019-02-17T04:46:24.229Z,5.10
2019-02-17T04:47:24.369Z,5.12
2019-02-17T04:48:24.194Z,5.04
2019-02-17T04:49:24.318Z,5.02
2019-02-17T04:50:24.130Z,4.99
2019-02-17T04:51:24.313Z,5.00
2019-02-17T04:52:24.108Z,4.99
2019-02-17T04:53:24.310Z,4.94
2019-02-17T04:54:24.135Z,4.92
2019-02-17T04:55:24.218Z,4.94
2019-02-17T04:56:24.100Z,4.99
2019-02-17T04:57:24.295Z,4.97
2019-02-17T04:58:24.066Z,4.99
2019-02-17T04:59:24.240Z,4.97
2019-02-17T05:00:24.036Z,4.92
2019-02-17T05:01:24.164Z,4.94
2019-02-17T05:02:24.004Z,4.94
2019-02-17T05:03:24.155Z,4.99
2019-02-17T05:04:24.038Z,4.99
2019-02-17T05:05:24.178Z,5.02
2019-02-17T05:06:23.970Z,5.07
2019-02-17T05:07:24.100Z,4.96
2019-02-17T05:08:23.946Z,5.04
2019-02-17T05:09:24.197Z,4.90
2019-02-17T05:10:23.928Z,4.89
2019-02-17T05:11:24.125Z,4.86
2019-02-17T05:12:24.878Z,4.90
2019-02-17T05:13:24.034Z,4.87
2019-02-17T05:14:23.940Z,4.86
2019-02-17T05:15:24.048Z,4.80
2019-02-17T05:16:23.884Z,4.82
2019-02-17T05:17:24.067Z,4.84
2019-02-17T05:18:23.854Z,4.80
2019-02-17T05:19:24.026Z,4.73
2019-02-17T05:20:23.834Z,4.78
2019-02-17T05:21:23.966Z,4.75
2019-02-17T05:22:23.816Z,4.75
2019-02-17T05:23:23.988Z,4.80
2019-02-17T05:24:23.827Z,4.80
2019-02-17T05:25:23.895Z,4.84
2019-02-17T05:26:23.772Z,4.87
2019-02-17T05:27:23.906Z,4.90
2019-02-17T05:28:23.746Z,4.86
2019-02-17T05:29:23.884Z,4.87
2019-02-17T05:30:23.750Z,4.86
2019-02-17T05:31:23.835Z,4.90
2019-02-17T05:32:23.716Z,5.00
2019-02-17T05:33:23.865Z,4.92
2019-02-17T05:34:23.734Z,4.92
2019-02-17T05:35:23.866Z,4.92
2019-02-17T05:36:23.680Z,4.89
2019-02-17T05:37:23.687Z,4.84
2019-02-17T05:38:23.653Z,4.82
2019-02-17T05:39:23.871Z,4.84
2019-02-17T05:40:23.633Z,4.86
2019-02-17T05:41:23.816Z,4.78
2019-02-17T05:42:23.599Z,4.80
2019-02-17T05:43:23.586Z,4.80
2019-02-17T05:44:23.612Z,4.80
2019-02-17T05:45:23.730Z,4.84
2019-02-17T05:46:23.554Z,4.74
2019-02-17T05:47:23.762Z,4.68
2019-02-17T05:48:23.581Z,4.82
2019-02-17T05:49:23.536Z,4.80
2019-02-17T05:50:23.572Z,4.86
2019-02-17T05:51:23.653Z,4.71
2019-02-17T05:52:23.516Z,4.77
2019-02-17T05:53:23.680Z,4.68
2019-02-17T05:54:23.492Z,4.63
2019-02-17T05:55:23.493Z,4.73
2019-02-17T05:56:23.496Z,4.70
2019-02-17T05:57:23.592Z,4.70
2019-02-17T05:58:23.429Z,4.67
2019-02-17T05:59:23.634Z,4.70
2019-02-17T06:00:23.404Z,4.73
2019-02-17T06:01:23.423Z,4.77
2019-02-17T06:02:23.523Z,4.63
2019-02-17T06:03:23.391Z,4.68
2019-02-17T06:04:23.554Z,4.75
2019-02-17T06:05:23.393Z,4.84
2019-02-17T06:06:23.584Z,4.82
2019-02-17T06:07:23.459Z,4.82
2019-02-17T06:08:23.343Z,4.71
2019-02-17T06:09:23.469Z,4.75
2019-02-17T06:10:23.353Z,4.74
2019-02-17T06:11:23.486Z,4.71
2019-02-17T06:12:23.331Z,4.71
2019-02-17T06:13:23.273Z,4.77
2019-02-17T06:14:24.438Z,4.74
2019-02-17T06:15:23.301Z,4.86
2019-02-17T06:16:23.363Z,4.78
2019-02-17T06:17:23.235Z,4.77
2019-02-17T06:18:23.431Z,4.67
2019-02-17T06:19:23.241Z,4.67
2019-02-17T06:20:23.351Z,4.66
2019-02-17T06:21:23.215Z,4.55
2019-02-17T06:22:23.348Z,4.62
2019-02-17T06:23:23.165Z,4.60
2019-02-17T06:24:23.281Z,4.56
2019-02-17T06:25:23.182Z,4.59
2019-02-17T06:26:23.350Z,4.53
2019-02-17T06:27:23.172Z,4.55
2019-02-17T06:28:23.290Z,4.58
2019-02-17T06:29:23.137Z,4.56
2019-02-17T06:30:23.320Z,4.56
2019-02-17T06:31:23.155Z,4.56
2019-02-17T06:32:23.215Z,4.50
2019-02-17T06:33:23.106Z,4.62
2019-02-17T06:34:23.246Z,4.53
2019-02-17T06:35:23.072Z,4.53
2019-02-17T06:36:23.200Z,4.60
2019-02-17T06:37:23.037Z,4.60
2019-02-17T06:38:23.162Z,4.63
2019-02-17T06:39:22.998Z,4.58
2019-02-17T06:40:23.176Z,4.67
2019-02-17T06:41:23.043Z,4.73
2019-02-17T06:42:23.076Z,4.66
2019-02-17T06:43:22.970Z,4.75
2019-02-17T06:44:23.106Z,4.86
2019-02-17T06:45:22.973Z,4.84
2019-02-17T06:46:23.084Z,4.84
2019-02-17T06:47:22.963Z,4.82
2019-02-17T06:48:23.027Z,4.77
2019-02-17T06:49:22.923Z,4.84
2019-02-17T06:50:23.056Z,4.74
2019-02-17T06:51:22.962Z,4.70
2019-02-17T06:52:23.066Z,4.74
2019-02-17T06:53:22.878Z,4.80
2019-02-17T06:54:22.955Z,4.92
2019-02-17T06:55:22.901Z,4.92
2019-02-17T06:56:22.962Z,4.89
2019-02-17T06:57:22.866Z,4.93
2019-02-17T06:58:22.973Z,5.00
2019-02-17T06:59:22.810Z,5.07
2019-02-17T07:00:22.902Z,5.07
2019-02-17T07:01:24.921Z,5.14
2019-02-17T07:02:22.998Z,5.20
2019-02-17T07:03:22.767Z,5.21
2019-02-17T07:04:22.939Z,5.23
2019-02-17T07:05:22.751Z,5.26
2019-02-17T07:06:22.880Z,5.26
2019-02-17T07:07:22.757Z,5.15
2019-02-17T07:08:22.883Z,5.21
2019-02-17T07:09:22.728Z,5.17
2019-02-17T07:10:22.874Z,5.17
2019-02-17T07:11:23.453Z,5.10
2019-02-17T07:12:22.763Z,5.12
2019-02-17T07:13:22.724Z,5.07
2019-02-17T07:14:22.791Z,5.00
2019-02-17T07:15:22.658Z,5.02
2019-02-17T07:16:22.830Z,5.08
2019-02-17T07:17:22.668Z,5.14
2019-02-17T07:18:22.618Z,5.05
2019-02-17T07:19:22.661Z,5.15
2019-02-17T07:20:22.719Z,5.12
2019-02-17T07:21:22.592Z,5.20
2019-02-17T07:22:22.708Z,5.23
2019-02-17T07:23:22.585Z,5.20
2019-02-17T07:24:22.565Z,5.29
2019-02-17T07:25:29.822Z,5.25
2019-02-17T07:26:23.533Z,5.32
2019-02-17T07:27:22.732Z,5.32
2019-02-17T07:28:22.516Z,5.28
2019-02-17T07:29:22.686Z,5.30
2019-02-17T07:30:22.607Z,5.29
2019-02-17T07:31:22.759Z,5.36
2019-02-17T07:32:22.678Z,5.33
2019-02-17T07:33:22.478Z,5.32
2019-02-17T07:34:22.620Z,5.44
2019-02-17T07:35:22.449Z,5.46
2019-02-17T07:36:22.449Z,5.47
2019-02-17T07:37:32.718Z,5.33
2019-02-17T07:38:23.413Z,5.36
2019-02-17T07:39:22.544Z,5.33
2019-02-17T07:40:22.394Z,5.38
2019-02-17T07:41:22.385Z,5.41
2019-02-17T07:42:22.414Z,5.43
2019-02-17T07:43:22.464Z,5.54
2019-02-17T07:44:22.359Z,5.51
2019-02-17T07:45:22.384Z,5.53
2019-02-17T07:46:22.331Z,5.56
2019-02-17T07:47:22.346Z,5.56
2019-02-17T07:48:22.305Z,5.61
2019-02-17T07:49:22.401Z,5.61
2019-02-17T07:50:22.320Z,5.62
2019-02-17T07:51:22.417Z,5.59
2019-02-17T07:52:22.339Z,5.69
2019-02-17T07:53:22.245Z,5.65
2019-02-17T07:54:22.270Z,5.73
2019-02-17T07:55:22.351Z,5.69
2019-02-17T07:56:22.229Z,5.72
2019-02-17T07:57:22.320Z,5.80
2019-02-17T07:58:22.206Z,5.80
2019-02-17T07:59:22.249Z,5.84
2019-02-17T08:00:22.285Z,5.90
2019-02-17T08:01:22.166Z,5.91
2019-02-17T08:02:22.256Z,5.97
2019-02-17T08:03:22.168Z,5.93
2019-02-17T08:04:22.309Z,6.09
2019-02-17T08:05:22.219Z,6.09
2019-02-17T08:06:22.232Z,6.08
2019-02-17T08:07:22.187Z,6.12
2019-02-17T08:08:22.225Z,6.16
2019-02-17T08:09:22.107Z,6.11
2019-02-17T08:10:22.060Z,6.16
2019-02-17T08:11:22.086Z,6.22
2019-02-17T08:12:22.197Z,6.19
2019-02-17T08:13:22.046Z,6.22
2019-02-17T08:14:22.163Z,6.20
2019-02-17T08:15:22.015Z,6.31
2019-02-17T08:16:22.022Z,6.36
2019-02-17T08:17:22.013Z,6.35
2019-02-17T08:18:22.135Z,6.39
2019-02-17T08:19:21.985Z,6.33
2019-02-17T08:20:22.110Z,6.46
2019-02-17T08:21:21.947Z,6.42
2019-02-17T08:22:21.961Z,6.57
2019-02-17T08:23:21.994Z,6.54
2019-02-17T08:24:22.096Z,6.52
2019-02-17T08:25:22.315Z,6.52
2019-02-17T08:26:21.926Z,6.52
2019-02-17T08:27:21.917Z,6.62
2019-02-17T08:28:21.890Z,6.62
2019-02-17T08:29:22.003Z,6.63
2019-02-17T08:30:21.880Z,6.63
2019-02-17T08:31:22.045Z,6.78
2019-02-17T08:32:22.015Z,6.81
2019-02-17T08:33:23.368Z,6.79
2019-02-17T08:34:21.818Z,6.87
2019-02-17T08:35:23.937Z,6.87
2019-02-17T08:36:21.819Z,6.92
2019-02-17T08:37:22.933Z,6.95
2019-02-17T08:38:21.832Z,6.92
2019-02-17T08:39:21.766Z,7.02
2019-02-17T08:40:21.759Z,7.05
2019-02-17T08:41:21.856Z,7.10
2019-02-17T08:42:21.752Z,7.17
2019-02-17T08:43:21.917Z,7.25
2019-02-17T08:44:21.735Z,7.25
2019-02-17T08:45:21.715Z,7.33
2019-02-17T08:46:21.711Z,7.36
2019-02-17T08:47:21.839Z,7.43
2019-02-17T08:48:21.697Z,7.54
2019-02-17T08:49:23.841Z,7.58
2019-02-17T08:50:21.704Z,7.60
2019-02-17T08:51:21.666Z,7.58
2019-02-17T08:52:21.668Z,7.60
2019-02-17T08:53:22.761Z,7.66
2019-02-17T08:54:21.611Z,7.66
2019-02-17T08:55:21.728Z,7.61
2019-02-17T08:56:21.618Z,7.77
2019-02-17T08:57:21.575Z,7.73
2019-02-17T08:58:21.573Z,7.91
2019-02-17T08:59:21.642Z,7.82
2019-02-17T09:00:21.559Z,7.85
2019-02-17T09:01:21.717Z,7.98
2019-02-17T09:02:21.524Z,8.00
2019-02-17T09:03:21.516Z,8.03
2019-02-17T09:04:21.508Z,8.05
2019-02-17T09:05:21.578Z,8.03
2019-02-17T09:06:21.530Z,8.13
2019-02-17T09:07:21.607Z,8.09
2019-02-17T09:08:21.476Z,8.24
2019-02-17T09:09:21.622Z,8.15
2019-02-17T09:10:21.452Z,8.31
2019-02-17T09:11:21.517Z,8.31
2019-02-17T09:12:21.457Z,8.31
2019-02-17T09:13:21.523Z,8.30
2019-02-17T09:14:21.459Z,8.44
2019-02-17T09:15:21.389Z,8.46
2019-02-17T09:16:21.440Z,8.46
2019-02-17T09:17:21.507Z,8.55
2019-02-17T09:18:21.351Z,8.49
2019-02-17T09:19:21.484Z,8.67
2019-02-17T09:20:21.349Z,8.53
2019-02-17T09:21:21.407Z,8.53
2019-02-17T09:22:21.352Z,8.64
2019-02-17T09:23:21.385Z,8.66
2019-02-17T09:24:21.315Z,8.66
2019-02-17T09:25:21.416Z,8.71
2019-02-17T09:26:21.292Z,8.74
2019-02-17T09:27:21.300Z,8.76
2019-02-17T09:28:21.265Z,8.82
2019-02-17T09:29:21.333Z,8.84
2019-02-17T09:30:21.236Z,8.88
2019-02-17T09:31:21.438Z,8.87
2019-02-17T09:32:21.252Z,8.87
2019-02-17T09:33:21.199Z,8.95
2019-02-17T09:34:21.267Z,8.89
2019-02-17T09:35:21.267Z,8.94
2019-02-17T09:36:21.164Z,9.03
2019-02-17T09:37:21.359Z,9.03
2019-02-17T09:38:21.160Z,9.14
2019-02-17T09:39:21.151Z,9.08
2019-02-17T09:40:21.129Z,9.04
2019-02-17T09:41:21.217Z,9.10
2019-02-17T09:42:21.142Z,9.06
2019-02-17T09:43:21.215Z,9.06
2019-02-17T09:44:21.080Z,9.00
2019-02-17T09:45:21.082Z,9.04
2019-02-17T09:46:21.132Z,9.08
2019-02-17T09:47:21.074Z,9.22
2019-02-17T09:48:21.157Z,9.13
2019-02-17T09:49:21.100Z,9.21
2019-02-17T09:50:21.160Z,9.32
2019-02-17T09:51:21.004Z,9.31
2019-02-17T09:52:21.085Z,9.39
2019-02-17T09:53:21.038Z,9.47
2019-02-17T09:54:21.084Z,9.43
2019-02-17T09:55:21.008Z,9.48
2019-02-17T09:56:21.124Z,9.54
2019-02-17T09:57:21.110Z,9.58
2019-02-17T09:58:20.966Z,9.54
2019-02-17T09:59:21.020Z,9.66
2019-02-17T10:00:20.909Z,9.65
2019-02-17T10:01:21.032Z,9.64
2019-02-17T10:02:26.613Z,9.80
2019-02-17T10:03:21.914Z,9.76
2019-02-17T10:04:20.949Z,9.77
2019-02-17T10:05:20.873Z,9.82
2019-02-17T10:06:20.955Z,9.91
2019-02-17T10:07:20.835Z,9.89
2019-02-17T10:08:20.931Z,9.89
2019-02-17T10:09:20.837Z,9.92
2019-02-17T10:10:20.890Z,10.05
2019-02-17T10:11:20.817Z,10.07
2019-02-17T10:12:20.918Z,10.20
2019-02-17T10:13:20.818Z,10.17
2019-02-17T10:14:20.931Z,10.17
2019-02-17T10:15:20.780Z,10.30
2019-02-17T10:16:22.116Z,10.22
2019-02-17T10:17:20.735Z,10.34
2019-02-17T10:18:25.006Z,10.38
2019-02-17T10:19:20.740Z,10.38
2019-02-17T10:20:24.451Z,10.41
2019-02-17T10:21:20.708Z,10.41
2019-02-17T10:22:22.832Z,10.40
2019-02-17T10:23:20.708Z,10.48
2019-02-17T10:24:21.805Z,10.54
2019-02-17T10:25:20.667Z,10.67
2019-02-17T10:26:20.655Z,10.54
2019-02-17T10:27:20.648Z,10.57
2019-02-17T10:28:22.829Z,10.54
2019-02-17T10:29:20.620Z,10.60
2019-02-17T10:30:28.500Z,10.63
2019-02-17T10:31:20.589Z,10.67
2019-02-17T10:32:20.595Z,10.63
2019-02-17T10:33:20.606Z,10.67
2019-02-17T10:34:21.683Z,10.67
2019-02-17T10:35:20.560Z,10.63
2019-02-17T10:36:27.529Z,10.81
2019-02-17T10:37:20.541Z,10.79
2019-02-17T10:38:20.555Z,10.86
2019-02-17T10:39:20.517Z,10.93
2019-02-17T10:40:20.684Z,11.00
2019-02-17T10:41:20.507Z,10.92
2019-02-17T10:42:27.460Z,10.92
2019-02-17T10:43:20.518Z,10.99
2019-02-17T10:44:20.469Z,11.04
2019-02-17T10:45:20.466Z,11.12
2019-02-17T10:46:36.517Z,11.07
2019-02-17T10:47:20.443Z,11.11
2019-02-17T10:48:21.517Z,11.22
2019-02-17T10:49:20.431Z,11.22
2019-02-17T10:50:20.414Z,11.29
2019-02-17T10:51:20.382Z,11.37
2019-02-17T10:52:22.515Z,11.43
2019-02-17T10:53:20.404Z,11.44
2019-02-17T10:54:22.953Z,11.55
2019-02-17T10:55:20.354Z,11.48
2019-02-17T10:56:20.345Z,11.59
2019-02-17T10:57:20.389Z,11.70
2019-02-17T10:58:20.360Z,11.75
2019-02-17T10:59:21.428Z,11.77
2019-02-17T11:00:20.298Z,11.84
2019-02-17T11:01:20.427Z,11.86
2019-02-17T11:02:20.265Z,11.97
2019-02-17T11:03:31.068Z,11.90
2019-02-17T11:04:20.261Z,11.94
2019-02-17T11:05:20.349Z,12.00
2019-02-17T11:06:20.248Z,12.00
2019-02-17T11:07:20.259Z,12.13
2019-02-17T11:08:20.240Z,12.20
2019-02-17T11:09:20.293Z,12.09
2019-02-17T11:10:20.203Z,12.17
2019-02-17T11:11:20.287Z,12.22
2019-02-17T11:12:20.173Z,12.27
2019-02-17T11:13:20.277Z,12.35
2019-02-17T11:14:20.162Z,12.32
2019-02-17T11:15:20.228Z,12.36
2019-02-17T11:16:20.127Z,12.40
2019-02-17T11:17:20.236Z,12.37
2019-02-17T11:18:20.140Z,12.43
2019-02-17T11:19:20.258Z,12.46
2019-02-17T11:20:20.098Z,12.49
2019-02-17T11:21:20.165Z,12.45
2019-02-17T11:22:23.203Z,12.45
2019-02-17T11:23:20.175Z,12.46
2019-02-17T11:24:20.033Z,12.57
2019-02-17T11:25:20.043Z,12.62
2019-02-17T11:26:20.013Z,12.65
2019-02-17T11:27:20.152Z,12.70
2019-02-17T11:28:20.001Z,12.68
2019-02-17T11:29:20.015Z,12.79
2019-02-17T11:30:19.981Z,12.83
2019-02-17T11:31:19.972Z,12.93
2019-02-17T11:32:19.990Z,12.98
2019-02-17T11:33:20.029Z,13.15
2019-02-17T11:34:19.939Z,13.53
2019-02-17T11:35:20.053Z,14.12
2019-02-17T11:36:19.905Z,14.91
2019-02-17T11:37:19.934Z,15.64
2019-02-17T11:38:19.951Z,16.26
2019-02-17T11:39:19.888Z,16.75
2019-02-17T11:40:19.975Z,17.09
2019-02-17T11:41:19.846Z,17.49
2019-02-17T11:42:20.070Z,17.65
2019-02-17T11:43:19.853Z,18.00
2019-02-17T11:44:19.891Z,18.07
2019-02-17T11:45:19.814Z,18.23
2019-02-17T11:46:19.906Z,18.47
2019-02-17T11:47:19.833Z,18.34
2019-02-17T11:48:20.787Z,18.49
2019-02-17T11:49:19.774Z,18.71
2019-02-17T11:50:19.828Z,18.75
2019-02-17T11:51:19.753Z,18.95
2019-02-17T11:52:19.918Z,19.16
2019-02-17T11:53:19.745Z,19.22
2019-02-17T11:54:19.862Z,19.29
2019-02-17T11:55:19.706Z,19.31
2019-02-17T11:56:19.767Z,19.39
2019-02-17T11:57:19.724Z,19.55
2019-02-17T11:58:19.781Z,19.74
2019-02-17T11:59:19.668Z,20.06
2019-02-17T12:00:19.664Z,20.14
2019-02-17T12:01:19.641Z,20.40
2019-02-17T12:02:24.994Z,20.51
2019-02-17T12:03:20.618Z,20.78
2019-02-17T12:04:19.720Z,20.84
2019-02-17T12:05:19.616Z,20.93
2019-02-17T12:06:19.580Z,21.07
2019-02-17T12:07:19.607Z,21.18
2019-02-17T12:08:19.661Z,21.21
2019-02-17T12:09:19.572Z,21.20
2019-02-17T12:10:19.674Z,21.24
2019-02-17T12:11:19.538Z,21.54
2019-02-17T12:12:19.554Z,21.55
2019-02-17T12:13:19.521Z,21.61
2019-02-17T12:14:19.600Z,21.43
2019-02-17T12:15:19.521Z,21.20
2019-02-17T12:16:19.598Z,21.11
2019-02-17T12:17:19.523Z,20.95
2019-02-17T12:18:19.468Z,20.93
2019-02-17T12:19:19.526Z,20.93
2019-02-17T12:20:19.435Z,20.90
2019-02-17T12:21:19.542Z,20.92
2019-02-17T12:22:19.462Z,21.02
2019-02-17T12:23:19.540Z,21.11
2019-02-17T12:24:19.397Z,21.03
2019-02-17T12:25:19.452Z,21.06
2019-02-17T12:26:19.379Z,21.00
2019-02-17T12:27:19.517Z,21.07
2019-02-17T12:28:19.358Z,20.95
2019-02-17T12:29:19.481Z,21.03
2019-02-17T12:30:19.331Z,20.85
2019-02-17T12:31:19.389Z,20.92
2019-02-17T12:32:19.341Z,21.06
2019-02-17T12:33:21.641Z,21.14
2019-02-17T12:34:19.312Z,21.24
2019-02-17T12:35:19.300Z,21.30
2019-02-17T12:36:19.268Z,21.24
2019-02-17T12:37:19.404Z,21.30
2019-02-17T12:38:19.258Z,21.22
2019-02-17T12:39:19.357Z,21.17
2019-02-17T12:40:19.245Z,21.11
2019-02-17T12:41:19.236Z,21.07
2019-02-17T12:42:19.241Z,21.12
2019-02-17T12:43:19.265Z,21.25
2019-02-17T12:44:19.192Z,21.12
2019-02-17T12:45:19.277Z,21.20
2019-02-17T12:46:19.168Z,21.22
2019-02-17T12:47:19.190Z,21.21
2019-02-17T12:48:19.145Z,21.15
2019-02-17T12:49:19.212Z,21.09
2019-02-17T12:50:19.124Z,21.20
2019-02-17T12:51:19.214Z,21.21
2019-02-17T12:52:19.156Z,20.97
2019-02-17T12:53:19.097Z,20.84
2019-02-17T12:54:28.677Z,20.84
2019-02-17T12:55:20.089Z,20.82
2019-02-17T12:56:19.166Z,20.59
2019-02-17T12:57:19.102Z,20.41
2019-02-17T12:58:29.391Z,20.34
2019-02-17T12:59:20.029Z,20.60
2019-02-17T13:00:19.185Z,20.82
2019-02-17T13:01:19.021Z,21.09
2019-02-17T13:02:19.148Z,21.07
2019-02-17T13:03:28.049Z,20.80
2019-02-17T13:04:19.980Z,20.84
2019-02-17T13:05:18.977Z,20.87
2019-02-17T13:06:19.008Z,20.85
2019-02-17T13:07:18.978Z,20.92
2019-02-17T13:08:19.020Z,21.29
2019-02-17T13:09:18.921Z,21.45
2019-02-17T13:10:19.067Z,21.46
2019-02-17T13:11:18.898Z,21.69
2019-02-17T13:12:19.009Z,21.62